Time;durP1;ratioP1;P1;durP2;ratioP2;P2;SDS_P1;SDS_P2;PMS_P1;PMS_P2;Temp;Humidity;BMP_temperature;BMP_pressure;BME280_temperature;BME280_humidity;BME280_pressure;Samples;Min_cycle;Max_cycle;Signal;HPM_P1;HPM_P2
2021/11/23 00:00:27;;;;;;;;;8.00;7.75;;;;;;;;5080761;28;11396;-74
2021/11/23 00:02:54;;;;;;;;;6.00;6.00;;;;;;;;5080378;28;11407;-74
2021/11/23 00:05:20;;;;;;;;;7.00;7.00;;;;;;;;5079537;28;11399;-75
2021/11/23 00:07:45;;;;;;;;;7.00;7.00;;;;;;;;5080137;28;11428;-74
2021/11/23 00:10:10;;;;;;;;;5.75;5.50;;;;;;;;5079902;28;8822;-73
2021/11/23 00:12:36;;;;;;;;;7.50;6.75;;;;;;;;5079797;28;11287;-74
2021/11/23 00:15:02;;;;;;;;;6.00;4.50;;;;;;;;5080336;28;11392;-74
2021/11/23 00:17:28;;;;;;;;;6.00;6.00;;;;;;;;5080501;28;11438;-73
2021/11/23 00:19:53;;;;;;;;;7.00;5.00;;;;;;;;5080066;28;11398;-74
2021/11/23 00:22:18;;;;;;;;;5.00;5.00;;;;;;;;5080007;28;8914;-73
2021/11/23 00:24:43;;;;;;;;;6.75;6.00;;;;;;;;5079788;28;9617;-73
2021/11/23 00:27:09;;;;;;;;;6.00;5.00;;;;;;;;5079901;28;11834;-73
2021/11/23 00:29:34;;;;;;;;;3.75;3.75;;;;;;;;5080059;28;9658;-74
2021/11/23 00:32:00;;;;;;;;;7.75;6.00;;;;;;;;5079574;28;11346;-72
2021/11/23 00:34:25;;;;;;;;;2.25;2.25;;;;;;;;5079136;28;11300;-73
2021/11/23 00:36:51;;;;;;;;;6.00;6.00;;;;;;;;5080179;28;11297;-74
2021/11/23 00:39:17;;;;;;;;;6.25;5.00;;;;;;;;5079888;28;11482;-75
2021/11/23 00:41:47;;;;;;;;;6.50;6.00;;;;;;;;5079521;28;9998;-73
2021/11/23 00:44:13;;;;;;;;;4.75;3.25;;;;;;;;5079866;28;9726;-73
2021/11/23 00:46:38;;;;;;;;;8.00;5.25;;;;;;;;5079517;28;11420;-73
2021/11/23 00:49:03;;;;;;;;;6.00;3.25;;;;;;;;5079728;28;10393;-72
2021/11/23 00:51:29;;;;;;;;;6.75;6.75;;;;;;;;5079610;28;8804;-71
2021/11/23 00:53:54;;;;;;;;;4.75;4.75;;;;;;;;5079314;28;9620;-71
2021/11/23 00:56:19;;;;;;;;;6.25;5.75;;;;;;;;5077747;28;9347;-72
2021/11/23 00:58:45;;;;;;;;;3.00;2.25;;;;;;;;5079503;28;9604;-72
2021/11/23 01:01:10;;;;;;;;;5.00;5.00;;;;;;;;5078932;28;10468;-72
2021/11/23 01:03:35;;;;;;;;;5.25;5.25;;;;;;;;5078616;28;11324;-71
2021/11/23 01:06:00;;;;;;;;;2.75;1.75;;;;;;;;5079250;28;8784;-70
2021/11/23 01:08:27;;;;;;;;;4.25;4.25;;;;;;;;5079788;28;10486;-71
2021/11/23 01:10:52;;;;;;;;;5.00;5.00;;;;;;;;5079649;28;10355;-71
2021/11/23 01:13:18;;;;;;;;;3.00;3.00;;;;;;;;5079185;28;11404;-71
2021/11/23 01:15:43;;;;;;;;;2.00;2.00;;;;;;;;5079738;28;8811;-72
2021/11/23 01:18:08;;;;;;;;;6.75;5.50;;;;;;;;5079303;28;9589;-72
2021/11/23 01:20:36;;;;;;;;;4.25;4.25;;;;;;;;5079118;28;11607;-72
2021/11/23 01:23:01;;;;;;;;;5.00;5.00;;;;;;;;5078123;28;11567;-71
2021/11/23 01:25:26;;;;;;;;;8.00;3.50;;;;;;;;5079768;28;11571;-72
2021/11/23 01:27:52;;;;;;;;;2.50;2.50;;;;;;;;5079372;28;12665;-71
2021/11/23 01:30:17;;;;;;;;;5.00;3.00;;;;;;;;5079468;28;10250;-71
2021/11/23 01:32:42;;;;;;;;;5.00;4.50;;;;;;;;5079227;28;11344;-72
2021/11/23 01:35:08;;;;;;;;;3.25;3.00;;;;;;;;5078827;28;9499;-71
2021/11/23 01:37:34;;;;;;;;;6.00;3.00;;;;;;;;5078831;28;11538;-70
2021/11/23 01:40:00;;;;;;;;;6.75;4.00;;;;;;;;5079473;28;11405;-72
2021/11/23 01:42:25;;;;;;;;;3.00;3.00;;;;;;;;5078430;28;9466;-71
2021/11/23 01:44:51;;;;;;;;;3.00;3.00;;;;;;;;5079452;28;10445;-71
2021/11/23 01:47:16;;;;;;;;;4.00;3.00;;;;;;;;5079182;28;8823;-72
2021/11/23 01:49:41;;;;;;;;;4.00;4.00;;;;;;;;5079461;28;8796;-72
2021/11/23 01:52:07;;;;;;;;;2.00;2.00;;;;;;;;5079215;28;8792;-71
2021/11/23 01:54:33;;;;;;;;;5.00;3.00;;;;;;;;5078908;28;8834;-71
2021/11/23 01:56:58;;;;;;;;;2.75;2.75;;;;;;;;5078807;28;8805;-71
2021/11/23 01:59:24;;;;;;;;;2.00;2.00;;;;;;;;5078320;28;11403;-72
2021/11/23 02:01:49;;;;;;;;;3.00;3.00;;;;;;;;5078408;28;8832;-70
2021/11/23 02:04:15;;;;;;;;;3.00;3.00;;;;;;;;5077843;28;9670;-71
2021/11/23 02:06:40;;;;;;;;;6.50;6.50;;;;;;;;5079437;28;8889;-71
2021/11/23 02:09:05;;;;;;;;;3.50;3.50;;;;;;;;5078915;28;11509;-71
2021/11/23 02:11:31;;;;;;;;;2.00;2.00;;;;;;;;5080103;28;8790;-71
2021/11/23 02:13:57;;;;;;;;;2.50;2.50;;;;;;;;5082378;28;11468;-72
2021/11/23 02:16:22;;;;;;;;;3.25;2.75;;;;;;;;5081996;28;8886;-71
2021/11/23 02:18:47;;;;;;;;;3.75;2.75;;;;;;;;5081676;28;11349;-71
2021/11/23 02:21:13;;;;;;;;;2.25;2.00;;;;;;;;5082286;28;8796;-71
2021/11/23 02:23:38;;;;;;;;;3.25;3.00;;;;;;;;5081624;28;11466;-70
2021/11/23 02:26:04;;;;;;;;;1.00;1.00;;;;;;;;5081661;28;9497;-71
2021/11/23 02:28:29;;;;;;;;;6.25;3.00;;;;;;;;5082149;28;10717;-71
2021/11/23 02:30:57;;;;;;;;;5.00;2.00;;;;;;;;5082179;28;10579;-71
2021/11/23 02:33:23;;;;;;;;;2.00;2.00;;;;;;;;5081465;28;10583;-71
2021/11/23 02:35:49;;;;;;;;;2.00;2.00;;;;;;;;5081471;28;11484;-71
2021/11/23 02:38:19;;;;;;;;;1.25;1.25;;;;;;;;5082336;28;11391;-71
2021/11/23 02:40:44;;;;;;;;;1.25;1.25;;;;;;;;5081710;28;11534;-71
2021/11/23 02:43:10;;;;;;;;;2.75;2.75;;;;;;;;5082555;28;11545;-71
2021/11/23 02:45:35;;;;;;;;;2.00;2.00;;;;;;;;5081737;28;10311;-71
2021/11/23 02:48:01;;;;;;;;;5.00;3.00;;;;;;;;5081833;28;8816;-71
2021/11/23 02:50:27;;;;;;;;;2.50;2.50;;;;;;;;5081897;28;8881;-71
2021/11/23 02:52:53;;;;;;;;;5.50;2.00;;;;;;;;5081181;28;11630;-71
2021/11/23 02:55:19;;;;;;;;;7.00;2.25;;;;;;;;5080927;28;11577;-71
2021/11/23 02:57:44;;;;;;;;;2.00;2.00;;;;;;;;5081772;28;11388;-71
2021/11/23 03:00:17;;;;;;;;;3.00;3.00;;;;;;;;5081097;28;11639;-71
2021/11/23 03:02:43;;;;;;;;;2.00;2.00;;;;;;;;5080937;28;8834;-71
2021/11/23 03:05:09;;;;;;;;;2.00;2.00;;;;;;;;5080839;28;11490;-71
2021/11/23 03:07:34;;;;;;;;;3.00;2.50;;;;;;;;5081785;28;8831;-72
2021/11/23 03:10:04;;;;;;;;;3.00;2.75;;;;;;;;5081297;28;11469;-72
2021/11/23 03:12:29;;;;;;;;;4.00;4.00;;;;;;;;5081499;28;8894;-72
2021/11/23 03:14:55;;;;;;;;;2.25;2.25;;;;;;;;5081150;28;12814;-72
2021/11/23 03:17:20;;;;;;;;;3.00;3.00;;;;;;;;5081189;28;11318;-71
2021/11/23 03:19:47;;;;;;;;;3.50;3.00;;;;;;;;5081201;28;12547;-71
2021/11/23 03:22:14;;;;;;;;;6.00;3.00;;;;;;;;5081012;28;8790;-70
2021/11/23 03:24:39;;;;;;;;;5.00;5.00;;;;;;;;5081309;28;11476;-70
2021/11/23 03:27:05;;;;;;;;;3.50;3.00;;;;;;;;5080900;28;11466;-70
2021/11/23 03:29:30;;;;;;;;;3.00;3.00;;;;;;;;5080856;28;10487;-71
2021/11/23 03:31:56;;;;;;;;;7.25;6.00;;;;;;;;5081382;28;8803;-71
2021/11/23 03:34:21;;;;;;;;;4.50;4.50;;;;;;;;5080418;28;11901;-72
2021/11/23 03:36:47;;;;;;;;;7.00;4.00;;;;;;;;5080631;28;11375;-71
2021/11/23 03:39:12;;;;;;;;;3.00;3.00;;;;;;;;5080642;28;11536;-70
2021/11/23 03:41:37;;;;;;;;;4.50;4.50;;;;;;;;5080431;28;8915;-71
2021/11/23 03:44:03;;;;;;;;;3.00;3.00;;;;;;;;5080346;28;11297;-72
2021/11/23 03:46:29;;;;;;;;;9.50;5.00;;;;;;;;5080963;28;11646;-71
2021/11/23 03:48:54;;;;;;;;;6.00;4.50;;;;;;;;5080361;28;11475;-71
2021/11/23 03:51:20;;;;;;;;;5.00;3.00;;;;;;;;5080443;28;11443;-72
2021/11/23 03:53:45;;;;;;;;;5.00;5.00;;;;;;;;5080374;28;11338;-71
2021/11/23 03:56:12;;;;;;;;;3.00;3.00;;;;;;;;5080575;28;9093;-71
2021/11/23 03:58:37;;;;;;;;;3.00;3.00;;;;;;;;5079983;28;9682;-71
2021/11/23 04:01:03;;;;;;;;;5.25;3.00;;;;;;;;5080280;28;11469;-71
2021/11/23 04:03:28;;;;;;;;;3.00;3.00;;;;;;;;5080292;28;10214;-71
2021/11/23 04:05:53;;;;;;;;;4.00;3.00;;;;;;;;5080791;28;9082;-72
2021/11/23 04:08:20;;;;;;;;;2.00;2.00;;;;;;;;5080490;28;8804;-72
2021/11/23 04:10:45;;;;;;;;;5.00;5.00;;;;;;;;5078510;28;8844;-72
2021/11/23 04:13:11;;;;;;;;;2.75;2.00;;;;;;;;5080241;28;11466;-72
2021/11/23 04:15:36;;;;;;;;;0.50;0.25;;;;;;;;5079912;28;10266;-71
2021/11/23 04:18:01;;;;;;;;;5.00;3.00;;;;;;;;5079723;28;12580;-72
2021/11/23 04:20:27;;;;;;;;;2.00;2.00;;;;;;;;5079771;28;11293;-71
2021/11/23 04:22:52;;;;;;;;;4.50;4.00;;;;;;;;5080030;28;8869;-71
2021/11/23 04:25:18;;;;;;;;;5.00;3.00;;;;;;;;5078898;28;12490;-72
2021/11/23 04:27:43;;;;;;;;;4.50;4.00;;;;;;;;5080367;28;10494;-71
2021/11/23 04:30:10;;;;;;;;;3.50;3.00;;;;;;;;5080504;28;10264;-71
2021/11/23 04:32:36;;;;;;;;;5.00;5.00;;;;;;;;5079768;28;8922;-72
2021/11/23 04:35:01;;;;;;;;;5.25;5.00;;;;;;;;5079087;28;11607;-71
2021/11/23 04:37:26;;;;;;;;;5.25;5.25;;;;;;;;5079941;28;8822;-71
2021/11/23 04:39:52;;;;;;;;;6.00;6.00;;;;;;;;5079635;28;8792;-72
2021/11/23 04:42:18;;;;;;;;;7.00;4.50;;;;;;;;5080659;28;11296;-71
2021/11/23 04:44:43;;;;;;;;;6.00;6.00;;;;;;;;5080185;28;11440;-72
2021/11/23 04:47:08;;;;;;;;;7.25;6.50;;;;;;;;5079820;28;11521;-72
2021/11/23 04:49:34;;;;;;;;;9.00;6.00;;;;;;;;5079692;28;11336;-72
2021/11/23 04:51:59;;;;;;;;;8.00;6.75;;;;;;;;5079843;28;12378;-72
2021/11/23 04:54:24;;;;;;;;;10.00;9.00;;;;;;;;5079639;28;11501;-72
2021/11/23 04:56:50;;;;;;;;;8.00;5.00;;;;;;;;5078884;28;21442;-71
2021/11/23 04:59:15;;;;;;;;;8.50;5.50;;;;;;;;5078575;28;21671;-72
2021/11/23 05:01:40;;;;;;;;;6.00;6.00;;;;;;;;5079482;28;8792;-72
2021/11/23 05:04:06;;;;;;;;;8.50;6.25;;;;;;;;5078930;28;11297;-72
2021/11/23 05:06:32;;;;;;;;;8.00;8.00;;;;;;;;5079008;28;11434;-73
2021/11/23 05:08:57;;;;;;;;;9.00;6.25;;;;;;;;5079800;28;11502;-73
2021/11/23 05:11:26;;;;;;;;;8.00;6.50;;;;;;;;5079605;28;11532;-72
2021/11/23 05:13:51;;;;;;;;;8.75;7.00;;;;;;;;5079190;28;13569;-72
2021/11/23 05:16:17;;;;;;;;;5.00;4.00;;;;;;;;5079504;28;11574;-73
2021/11/23 05:18:42;;;;;;;;;6.00;5.50;;;;;;;;5079575;28;10262;-72
2021/11/23 05:21:07;;;;;;;;;7.50;7.50;;;;;;;;5079165;28;11302;-71
2021/11/23 05:23:33;;;;;;;;;6.75;5.50;;;;;;;;5079085;28;10242;-72
2021/11/23 05:25:58;;;;;;;;;4.00;4.00;;;;;;;;5078370;28;10610;-72
2021/11/23 05:28:24;;;;;;;;;5.75;5.25;;;;;;;;5079414;28;12728;-72
2021/11/23 05:30:50;;;;;;;;;5.75;4.00;;;;;;;;5079441;28;11441;-72
2021/11/23 05:33:15;;;;;;;;;4.50;4.50;;;;;;;;5078811;28;9177;-73
2021/11/23 05:35:40;;;;;;;;;5.00;5.00;;;;;;;;5079454;28;11334;-76
2021/11/23 05:38:06;;;;;;;;;1.00;0.00;;;;;;;;5079270;28;11290;-78
2021/11/23 05:40:31;;;;;;;;;8.50;6.25;;;;;;;;5079307;28;8814;-75
2021/11/23 05:42:56;;;;;;;;;7.75;7.00;;;;;;;;5079457;28;11366;-78
2021/11/23 05:45:21;;;;;;;;;8.75;7.00;;;;;;;;5079148;28;12461;-77
2021/11/23 05:47:47;;;;;;;;;8.75;5.50;;;;;;;;5081459;28;8792;-76
2021/11/23 05:50:12;;;;;;;;;8.25;7.25;;;;;;;;5082177;28;8792;-76
2021/11/23 05:52:38;;;;;;;;;8.00;6.50;;;;;;;;5082196;28;10392;-75
2021/11/23 05:55:04;;;;;;;;;6.25;5.00;;;;;;;;5081128;28;12483;-75
2021/11/23 05:57:29;;;;;;;;;6.25;6.25;;;;;;;;5082909;28;11420;-77
2021/11/23 05:59:54;;;;;;;;;6.00;6.00;;;;;;;;5082687;28;9488;-75
2021/11/23 06:02:19;;;;;;;;;8.00;5.50;;;;;;;;5082743;28;8835;-75
2021/11/23 06:04:45;;;;;;;;;6.50;5.00;;;;;;;;5080038;28;11849;-78
2021/11/23 06:07:10;;;;;;;;;6.25;5.50;;;;;;;;5082355;28;11492;-76
2021/11/23 06:09:35;;;;;;;;;7.50;5.50;;;;;;;;5082562;28;8796;-78
2021/11/23 06:12:01;;;;;;;;;5.50;5.50;;;;;;;;5067128;28;8898;-77
2021/11/23 06:14:26;;;;;;;;;5.25;5.25;;;;;;;;5051372;28;8923;-78
2021/11/23 06:16:52;;;;;;;;;7.00;6.50;;;;;;;;5041817;28;8797;-76
2021/11/23 06:19:18;;;;;;;;;8.25;5.00;;;;;;;;5041360;28;11634;-75
2021/11/23 06:21:43;;;;;;;;;7.25;5.50;;;;;;;;5042130;28;11500;-76
2021/11/23 06:24:09;;;;;;;;;10.00;6.75;;;;;;;;5042095;28;11444;-77
2021/11/23 06:26:34;;;;;;;;;6.00;6.00;;;;;;;;5042006;28;22551;-77
2021/11/23 06:29:00;;;;;;;;;4.25;3.00;;;;;;;;5041949;28;22146;-77
2021/11/23 06:31:25;;;;;;;;;5.50;5.50;;;;;;;;5040219;28;10938;-79
2021/11/23 06:33:54;;;;;;;;;3.75;3.75;;;;;;;;5041610;28;11289;-76
2021/11/23 06:36:19;;;;;;;;;7.00;5.00;;;;;;;;5042134;28;11705;-77
2021/11/23 06:38:46;;;;;;;;;6.75;4.25;;;;;;;;5041995;28;11533;-77
2021/11/23 06:41:12;;;;;;;;;3.75;3.75;;;;;;;;5041244;28;11424;-77
2021/11/23 06:43:38;;;;;;;;;4.25;4.25;;;;;;;;5041315;28;11476;-76
2021/11/23 06:46:03;;;;;;;;;9.00;5.50;;;;;;;;5041376;28;11751;-76
2021/11/23 06:48:28;;;;;;;;;4.50;4.50;;;;;;;;5041279;28;12479;-74
2021/11/23 06:50:54;;;;;;;;;5.00;4.00;;;;;;;;5040672;28;10307;-86
2021/11/23 06:53:19;;;;;;;;;6.00;6.00;;;;;;;;5041095;28;11470;-78
2021/11/23 06:57:48;;;;;;;;;4.00;3.00;;;;;;;;5214742;27;78535;-76
2021/11/23 07:00:14;;;;;;;;;5.00;4.00;;;;;;;;5200059;27;20749;-76
2021/11/23 07:02:39;;;;;;;;;5.00;5.00;;;;;;;;5181464;27;11281;-78
2021/11/23 07:05:04;;;;;;;;;4.25;4.00;;;;;;;;5201113;27;8805;-77
2021/11/23 07:07:30;;;;;;;;;4.00;4.00;;;;;;;;5201190;27;10397;-83
2021/11/23 07:09:55;;;;;;;;;5.00;5.00;;;;;;;;5203548;27;8799;-84
2021/11/23 07:12:20;;;;;;;;;3.00;3.00;;;;;;;;5200137;27;8976;-78
2021/11/23 07:14:46;;;;;;;;;2.50;1.50;;;;;;;;5200276;27;8771;-82
2021/11/23 07:17:11;;;;;;;;;3.75;3.75;;;;;;;;5184149;27;12506;-83
2021/11/23 07:19:37;;;;;;;;;3.00;3.00;;;;;;;;5179366;27;11422;-81
2021/11/23 07:22:02;;;;;;;;;5.50;4.00;;;;;;;;5179603;27;8947;-80
2021/11/23 07:24:28;;;;;;;;;4.00;4.00;;;;;;;;5179094;27;11424;-80
2021/11/23 07:26:53;;;;;;;;;4.00;4.00;;;;;;;;5179294;27;8950;-80
2021/11/23 07:29:19;;;;;;;;;3.00;3.00;;;;;;;;5182281;27;8999;-81
2021/11/23 07:31:44;;;;;;;;;3.00;3.00;;;;;;;;5177951;27;9081;-83
2021/11/23 07:34:09;;;;;;;;;4.25;3.25;;;;;;;;5176979;27;8798;-84
2021/11/23 07:36:36;;;;;;;;;4.00;4.00;;;;;;;;5187701;27;11287;-83
2021/11/23 07:39:03;;;;;;;;;8.75;5.00;;;;;;;;5167977;27;10800;-83
2021/11/23 07:41:28;;;;;;;;;3.00;3.00;;;;;;;;5186695;27;11442;-80
2021/11/23 07:43:54;;;;;;;;;3.75;3.75;;;;;;;;5187082;27;11385;-83
2021/11/23 07:46:19;;;;;;;;;4.00;4.00;;;;;;;;5190323;27;10107;-83
2021/11/23 07:48:45;;;;;;;;;2.75;2.75;;;;;;;;5191402;27;11466;-80
2021/11/23 07:51:11;;;;;;;;;4.00;3.75;;;;;;;;5199725;27;11907;-82
2021/11/23 07:53:36;;;;;;;;;4.00;4.00;;;;;;;;5199713;27;11489;-82
2021/11/23 07:56:01;;;;;;;;;4.00;4.00;;;;;;;;5198965;27;9532;-80
2021/11/23 07:58:27;;;;;;;;;2.75;2.75;;;;;;;;5199634;27;8847;-81
2021/11/23 08:00:52;;;;;;;;;3.00;3.00;;;;;;;;5180189;27;13613;-78
2021/11/23 08:03:18;;;;;;;;;4.00;4.00;;;;;;;;5198861;27;11645;-76
2021/11/23 08:05:43;;;;;;;;;4.25;3.75;;;;;;;;5199241;27;8795;-77
2021/11/23 08:08:09;;;;;;;;;2.25;2.25;;;;;;;;5191508;27;10742;-79
2021/11/23 08:10:35;;;;;;;;;3.50;3.50;;;;;;;;5185476;27;10430;-76
2021/11/23 08:13:00;;;;;;;;;3.00;3.00;;;;;;;;5185131;27;11561;-78
2021/11/23 08:15:26;;;;;;;;;4.00;4.00;;;;;;;;5185332;27;8776;-77
2021/11/23 08:17:51;;;;;;;;;4.00;4.00;;;;;;;;5184946;27;8819;-79
2021/11/23 08:20:17;;;;;;;;;4.00;3.00;;;;;;;;5185492;27;8844;-83
2021/11/23 08:22:43;;;;;;;;;3.50;3.50;;;;;;;;5184728;27;8780;-80
2021/11/23 08:25:09;;;;;;;;;2.25;2.25;;;;;;;;5185794;27;11290;-79
2021/11/23 08:27:35;;;;;;;;;3.50;3.50;;;;;;;;5184789;27;11565;-78
2021/11/23 08:30:00;;;;;;;;;3.00;2.50;;;;;;;;5185091;27;12393;-81
2021/11/23 08:32:26;;;;;;;;;2.75;2.25;;;;;;;;5184842;27;9893;-79
2021/11/23 08:34:52;;;;;;;;;3.75;3.75;;;;;;;;5183306;27;11523;-79
2021/11/23 08:37:17;;;;;;;;;2.25;2.25;;;;;;;;5173309;27;11421;-79
2021/11/23 08:39:42;;;;;;;;;2.75;2.75;;;;;;;;5172683;27;10504;-81
2021/11/23 08:42:08;;;;;;;;;3.00;2.00;;;;;;;;5174049;27;8820;-80
2021/11/23 08:44:33;;;;;;;;;3.00;3.00;;;;;;;;5173709;27;11522;-80
2021/11/23 08:46:58;;;;;;;;;4.00;3.50;;;;;;;;5173760;27;8819;-80
2021/11/23 08:49:23;;;;;;;;;2.00;2.00;;;;;;;;5175250;27;11319;-81
2021/11/23 08:51:51;;;;;;;;;3.00;3.00;;;;;;;;5172728;27;11944;-81
2021/11/23 08:54:17;;;;;;;;;2.50;2.50;;;;;;;;5175528;27;8781;-80
2021/11/23 08:56:50;;;;;;;;;2.50;1.50;;;;;;;;5172076;27;11408;-80
2021/11/23 08:59:17;;;;;;;;;3.00;3.00;;;;;;;;5173489;27;8794;-81
2021/11/23 09:01:42;;;;;;;;;4.00;3.75;;;;;;;;5172053;27;11593;-81
2021/11/23 09:04:07;;;;;;;;;4.00;3.25;;;;;;;;5174156;27;11403;-80
2021/11/23 09:06:36;;;;;;;;;3.50;3.50;;;;;;;;5172527;27;9553;-81
2021/11/23 09:09:04;;;;;;;;;3.00;3.00;;;;;;;;5172491;27;11931;-80
2021/11/23 09:11:30;;;;;;;;;5.00;3.75;;;;;;;;5172494;27;11379;-82
2021/11/23 09:13:55;;;;;;;;;4.50;4.50;;;;;;;;5154707;27;13499;-82
2021/11/23 09:16:22;;;;;;;;;3.00;3.00;;;;;;;;5176685;27;12212;-82
2021/11/23 09:18:47;;;;;;;;;3.00;3.00;;;;;;;;5183574;27;11793;-85
2021/11/23 09:21:12;;;;;;;;;2.50;2.50;;;;;;;;5184066;27;11422;-84
2021/11/23 09:23:38;;;;;;;;;5.00;4.00;;;;;;;;5184497;27;12565;-83
2021/11/23 09:26:03;;;;;;;;;3.00;3.00;;;;;;;;5184418;27;11502;-83
2021/11/23 09:28:28;;;;;;;;;3.00;2.75;;;;;;;;5181435;27;8879;-79
2021/11/23 09:30:55;;;;;;;;;3.25;2.25;;;;;;;;5172059;27;8958;-76
2021/11/23 09:33:20;;;;;;;;;2.50;2.00;;;;;;;;5172108;27;8875;-78
2021/11/23 09:35:45;;;;;;;;;3.00;3.00;;;;;;;;5155774;27;13365;-79
2021/11/23 09:38:11;;;;;;;;;4.25;3.00;;;;;;;;5173770;27;11191;-82
2021/11/23 09:40:36;;;;;;;;;2.50;2.00;;;;;;;;5182710;27;8951;-80
2021/11/23 09:43:03;;;;;;;;;3.00;3.00;;;;;;;;5183677;27;10299;-78
2021/11/23 09:45:28;;;;;;;;;2.50;2.00;;;;;;;;5178022;27;10605;-77
2021/11/23 09:47:54;;;;;;;;;2.00;2.00;;;;;;;;5174139;27;11739;-76
2021/11/23 09:50:20;;;;;;;;;3.00;3.00;;;;;;;;5171453;27;9062;-77
2021/11/23 09:52:45;;;;;;;;;4.00;3.00;;;;;;;;5180474;27;11669;-78
2021/11/23 09:55:11;;;;;;;;;2.00;2.00;;;;;;;;5177794;27;8787;-78
2021/11/23 09:57:37;;;;;;;;;4.00;2.00;;;;;;;;5170829;27;10380;-79
2021/11/23 10:00:04;;;;;;;;;3.75;3.00;;;;;;;;5149990;27;11164;-76
2021/11/23 10:02:31;;;;;;;;;4.25;2.00;;;;;;;;5165400;27;11065;-79
2021/11/23 10:04:57;;;;;;;;;2.00;2.00;;;;;;;;5171413;27;11383;-78
2021/11/23 10:07:32;;;;;;;;;6.25;4.50;;;;;;;;5172510;27;11161;-82
2021/11/23 10:10:08;;;;;;;;;2.50;2.50;;;;;;;;5170810;27;11843;-81
2021/11/23 10:12:34;;;;;;;;;3.00;2.75;;;;;;;;5171288;27;10953;-82
2021/11/23 10:15:11;;;;;;;;;3.00;2.00;;;;;;;;5173772;27;11301;-73
2021/11/23 10:17:37;;;;;;;;;3.75;3.00;;;;;;;;5173263;27;8807;-74
2021/11/23 10:20:03;;;;;;;;;3.00;3.00;;;;;;;;5171453;27;11636;-77
2021/11/23 10:22:34;;;;;;;;;2.00;2.00;;;;;;;;5171261;27;10991;-80
2021/11/23 10:25:00;;;;;;;;;2.00;2.00;;;;;;;;5153750;27;11478;-80
2021/11/23 10:27:25;;;;;;;;;1.75;1.25;;;;;;;;5171018;27;11096;-81
2021/11/23 10:29:51;;;;;;;;;3.25;3.25;;;;;;;;5172914;27;11351;-81
2021/11/23 10:32:16;;;;;;;;;3.75;3.75;;;;;;;;5170997;27;9571;-82
2021/11/23 10:34:43;;;;;;;;;4.50;3.00;;;;;;;;5171377;27;8803;-82
2021/11/23 10:37:09;;;;;;;;;4.25;3.00;;;;;;;;5173467;27;12551;-83
2021/11/23 10:39:34;;;;;;;;;4.00;3.00;;;;;;;;5145000;27;11030;-81
2021/11/23 10:42:01;;;;;;;;;4.00;4.00;;;;;;;;5162964;27;8783;-81
2021/11/23 10:44:28;;;;;;;;;2.50;2.50;;;;;;;;5170781;27;8798;-79
2021/11/23 10:46:54;;;;;;;;;4.25;3.50;;;;;;;;5180557;27;11571;-81
2021/11/23 10:49:27;;;;;;;;;4.25;2.75;;;;;;;;5170316;27;11461;-83
2021/11/23 10:51:53;;;;;;;;;2.00;2.00;;;;;;;;5152503;27;11555;-83
2021/11/23 10:54:18;;;;;;;;;4.75;4.75;;;;;;;;5176454;27;12130;-84
2021/11/23 10:57:00;;;;;;;;;3.00;2.00;;;;;;;;5181783;27;11952;-79
2021/11/23 10:59:26;;;;;;;;;2.75;2.75;;;;;;;;5182967;27;11359;-80
2021/11/23 11:01:52;;;;;;;;;3.75;3.75;;;;;;;;5182751;27;11806;-78
2021/11/23 11:04:18;;;;;;;;;2.75;2.75;;;;;;;;5182752;27;8799;-80
2021/11/23 11:06:44;;;;;;;;;5.00;1.75;;;;;;;;5168777;27;8866;-81
2021/11/23 11:09:10;;;;;;;;;3.00;3.00;;;;;;;;5162387;27;10246;-83
2021/11/23 11:11:36;;;;;;;;;3.67;3.67;;;;;;;;5162357;27;11715;-82
2021/11/23 11:14:03;;;;;;;;;3.00;3.00;;;;;;;;5162598;27;9321;-78
2021/11/23 11:16:29;;;;;;;;;4.00;4.00;;;;;;;;5142877;27;9169;-78
2021/11/23 11:19:01;;;;;;;;;2.00;2.00;;;;;;;;5161952;27;9310;-77
2021/11/23 11:21:27;;;;;;;;;2.67;2.67;;;;;;;;5161760;27;8997;-78
2021/11/23 11:23:57;;;;;;;;;2.67;2.67;;;;;;;;5162096;27;9027;-78
2021/11/23 11:26:31;;;;;;;;;3.00;3.00;;;;;;;;5161963;27;8806;-78
2021/11/23 11:28:58;;;;;;;;;2.00;2.00;;;;;;;;5161637;27;11375;-77
2021/11/23 11:31:42;;;;;;;;;3.50;2.50;;;;;;;;5162430;27;9255;-78
2021/11/23 11:34:27;;;;;;;;;5.00;3.00;;;;;;;;5161037;27;11531;-78
2021/11/23 11:37:07;;;;;;;;;7.00;3.50;;;;;;;;5160728;27;11535;-78
2021/11/23 11:39:38;;;;;;;;;3.50;3.00;;;;;;;;5162110;27;11394;-78
2021/11/23 11:42:07;;;;;;;;;3.25;3.25;;;;;;;;5161812;27;11729;-78
2021/11/23 11:44:39;;;;;;;;;4.00;4.00;;;;;;;;5164914;27;10668;-78
2021/11/23 11:47:06;;;;;;;;;3.00;3.00;;;;;;;;5165474;27;11844;-78
2021/11/23 11:49:50;;;;;;;;;3.00;3.00;;;;;;;;5164864;27;10032;-78
2021/11/23 11:52:20;;;;;;;;;3.00;3.00;;;;;;;;5164996;27;10047;-76
2021/11/23 11:55:05;;;;;;;;;4.00;3.50;;;;;;;;5165239;27;10258;-78
2021/11/23 11:57:30;;;;;;;;;3.00;3.00;;;;;;;;5164026;27;11433;-77
2021/11/23 12:00:16;;;;;;;;;3.00;3.00;;;;;;;;5164811;27;11298;-76
2021/11/23 12:02:41;;;;;;;;;4.00;3.00;;;;;;;;5165139;27;8841;-77
2021/11/23 12:05:06;;;;;;;;;3.00;2.00;;;;;;;;5145659;27;10703;-77
2021/11/23 12:07:43;;;;;;;;;3.00;3.00;;;;;;;;5164236;27;9532;-78
2021/11/23 12:10:17;;;;;;;;;3.00;3.00;;;;;;;;5165318;27;8889;-78
2021/11/23 12:12:43;;;;;;;;;3.00;3.00;;;;;;;;5164258;27;11675;-77
2021/11/23 12:15:24;;;;;;;;;3.00;3.00;;;;;;;;5164828;27;11051;-78
2021/11/23 12:18:09;;;;;;;;;4.00;3.25;;;;;;;;5164206;27;11005;-77
2021/11/23 12:20:47;;;;;;;;;3.50;3.50;;;;;;;;5163703;27;11578;-77
2021/11/23 12:23:14;;;;;;;;;6.50;4.75;;;;;;;;5163656;27;11584;-78
2021/11/23 12:25:53;;;;;;;;;3.00;3.00;;;;;;;;5164633;27;12752;-78
2021/11/23 12:28:18;;;;;;;;;5.00;4.00;;;;;;;;5144573;27;13666;-78
2021/11/23 12:30:44;;;;;;;;;6.50;3.75;;;;;;;;5164090;27;11061;-78
2021/11/23 12:33:09;;;;;;;;;6.00;3.75;;;;;;;;5163981;27;11795;-79
2021/11/23 12:35:38;;;;;;;;;2.00;2.00;;;;;;;;5145371;27;8829;-78
2021/11/23 12:38:04;;;;;;;;;5.50;4.00;;;;;;;;5163685;27;12779;-77
2021/11/23 12:40:30;;;;;;;;;3.25;3.25;;;;;;;;5163776;27;11036;-77
2021/11/23 12:42:59;;;;;;;;;3.50;3.50;;;;;;;;5163668;27;11372;-81
2021/11/23 12:45:33;;;;;;;;;3.00;3.00;;;;;;;;5163609;27;12272;-80
2021/11/23 12:47:58;;;;;;;;;5.00;4.00;;;;;;;;5171550;27;12079;-80
2021/11/23 12:50:27;;;;;;;;;4.00;3.50;;;;;;;;5174307;27;11498;-85
2021/11/23 12:53:00;;;;;;;;;5.00;5.00;;;;;;;;5173283;27;11611;-84
2021/11/23 12:55:25;;;;;;;;;3.75;3.75;;;;;;;;5171429;27;11621;-86
2021/11/23 12:57:54;;;;;;;;;4.75;4.00;;;;;;;;5172458;27;11841;-85
2021/11/23 13:00:19;;;;;;;;;5.25;5.25;;;;;;;;5152917;27;13593;-83
2021/11/23 13:02:47;;;;;;;;;4.00;4.00;;;;;;;;5166034;27;11448;-79
2021/11/23 13:05:17;;;;;;;;;4.00;4.00;;;;;;;;5170576;27;12079;-87
2021/11/23 13:07:53;;;;;;;;;5.00;4.00;;;;;;;;5175068;27;11462;-80
2021/11/23 13:10:20;;;;;;;;;4.00;4.00;;;;;;;;5145843;27;11396;-81
2021/11/23 13:12:47;;;;;;;;;4.00;4.00;;;;;;;;5163431;27;12196;-79
2021/11/23 13:15:20;;;;;;;;;2.75;2.75;;;;;;;;5145239;27;11494;-80
2021/11/23 13:17:51;;;;;;;;;5.00;3.50;;;;;;;;5163404;27;11408;-81
2021/11/23 13:20:25;;;;;;;;;4.50;4.50;;;;;;;;5171199;27;11783;-80
2021/11/23 13:22:55;;;;;;;;;5.75;4.50;;;;;;;;5173364;27;11393;-81
2021/11/23 13:25:21;;;;;;;;;3.00;3.00;;;;;;;;5184350;27;11470;-81
2021/11/23 13:27:46;;;;;;;;;4.25;4.00;;;;;;;;5155237;27;11815;-78
2021/11/23 13:30:30;;;;;;;;;4.00;4.00;;;;;;;;5154693;27;11447;-80
2021/11/23 13:32:56;;;;;;;;;4.00;4.00;;;;;;;;5163272;27;8799;-80
2021/11/23 13:35:21;;;;;;;;;6.00;6.00;;;;;;;;5176316;27;11522;-79
2021/11/23 13:37:49;;;;;;;;;7.25;5.25;;;;;;;;5183781;27;9864;-82
2021/11/23 13:40:18;;;;;;;;;5.50;5.00;;;;;;;;5183801;27;11450;-81
2021/11/23 13:42:44;;;;;;;;;4.00;4.00;;;;;;;;5183559;27;12882;-80
2021/11/23 13:45:10;;;;;;;;;6.50;5.25;;;;;;;;5184103;27;11373;-86
2021/11/23 13:47:35;;;;;;;;;6.00;4.25;;;;;;;;5178299;27;11291;-84
2021/11/23 13:50:04;;;;;;;;;4.25;4.00;;;;;;;;5155705;27;9633;-84
2021/11/23 13:52:32;;;;;;;;;6.00;6.00;;;;;;;;5178603;27;11573;-87
2021/11/23 13:54:58;;;;;;;;;7.00;7.00;;;;;;;;5169940;27;11427;-85
2021/11/23 13:57:26;;;;;;;;;5.50;5.50;;;;;;;;5144639;27;11415;-84
2021/11/23 13:59:51;;;;;;;;;7.00;7.00;;;;;;;;5163533;27;11467;-85
2021/11/23 14:02:17;;;;;;;;;6.00;6.00;;;;;;;;5163672;27;12208;-90
2021/11/23 14:04:43;;;;;;;;;6.00;5.00;;;;;;;;5163706;27;8849;-88
2021/11/23 14:07:18;;;;;;;;;8.00;7.00;;;;;;;;5163987;27;8783;-83
2021/11/23 14:09:53;;;;;;;;;5.50;5.50;;;;;;;;5170676;27;11388;-84
2021/11/23 14:12:20;;;;;;;;;5.50;5.50;;;;;;;;5173484;27;11635;-84
2021/11/23 14:14:57;;;;;;;;;5.00;5.00;;;;;;;;5171671;27;11426;-83
2021/11/23 14:17:23;;;;;;;;;7.50;6.00;;;;;;;;5173227;27;11351;-83
2021/11/23 14:20:07;;;;;;;;;6.25;6.00;;;;;;;;5171048;27;12029;-84
2021/11/23 14:22:40;;;;;;;;;6.00;6.00;;;;;;;;5171000;27;9098;-83
2021/11/23 14:25:22;;;;;;;;;6.50;5.00;;;;;;;;5170561;27;11374;-84
2021/11/23 14:27:51;;;;;;;;;6.75;5.75;;;;;;;;5170460;27;12361;-83
2021/11/23 14:30:16;;;;;;;;;7.25;5.00;;;;;;;;5168238;27;12357;-84
2021/11/23 14:32:42;;;;;;;;;5.00;5.00;;;;;;;;5172761;27;11453;-83
2021/11/23 15:45:14;;;;;;;;;7.00;7.00;;;;;;;;5190163;27;76784;-70
2021/11/23 15:47:39;;;;;;;;;8.00;8.00;;;;;;;;5166099;27;20546;-68
2021/11/23 15:50:05;;;;;;;;;8.50;7.50;;;;;;;;5167481;27;8840;-70
2021/11/23 15:52:31;;;;;;;;;8.75;8.00;;;;;;;;5165583;27;10476;-70
2021/11/23 15:54:56;;;;;;;;;6.75;6.75;;;;;;;;5168516;27;10379;-69
2021/11/23 15:57:24;;;;;;;;;9.00;8.00;;;;;;;;5165603;27;11487;-70